Warm Springs, Montana
Current Conditions -  °F | °C
As of 1:53 PM on Friday 31 Oct 2014 (Local Time) from KBTM Reporting Station
Clear Clear  
Wind Chill: 63°   Ceiling: Unl
Heat Index: 63°   Visibility: 10mi
Dew Point: 27°   Wind: 15mph
Humidity: 26%   Direction: 170°S
Pressure: 29.84"   Gusts: NA
Location:  46.18°N, 112.79°W
Report Text: KBTM 311953Z AUTO 17013KT 10SM CLR 17/M03 A2984 RMK AO2 SLP080 T01721028
Loading
Personal Weather Stations






























Interactive Weather Map
Tropical Storm Tracking
New forecast layout! Learn more

10-Day Weather Forecast

Advertisements
Track Severe Weather on mobile